»·PEaware :: DIHNF KIFP-KVGT

DIHNF :: KIFP-KVGT

FLIGHT INFORMATION

Flight Status: Arrived
Operator: Unknown
More flights by this operator :: More flights under this callsign
Pilot: Klaus A. (15485)
Aircraft: BEECH AIRCRAFT BARON
(BE58)
More flights by this aircraft type
Origin: KIFP Laughlin/Bullhead Intl
United States
Destination: KVGT North Las Vegas
United States
More flights between these airports :: More routes between these airports
Route: +EED V135 GFS V538 LAS
File this flight plan on PilotEdge
Remarks: Departure via ODP RWY 34
Altitude:
(Current/Filed)
14,000ft
Speed:
(Current/Filed)
170kts
Departed: 11-Feb-19 09:15 AM
Arrived: 11-Feb-19 10:05 AM
Distance/Time
Traveled:
70nm/0:50
Distance/Time
To Go:
Arrived

Flight Plot

Page will automatically refresh every two minutes.

Flight plan parsing failed; only flown route is shown


Map Options




Map Legend


Flown Route
Filed Route
Departure Airport
Arrival Airport
Navaid (VOR, NDB)
Fix

Horizontal Profiles

Position Reports

Time Latitude Longitude Heading Altitude Ground
Speed
11-Feb-19 08:50 35.158610 -114.556007 266 705ft 0kts
11-Feb-19 08:51 35.158610 -114.556007 266 705ft 0kts
11-Feb-19 08:53 35.158610 -114.556007 266 705ft 0kts
11-Feb-19 08:54 35.158610 -114.556007 266 705ft 0kts
11-Feb-19 08:55 35.158610 -114.556007 266 705ft 0kts
11-Feb-19 08:56 35.158610 -114.556007 266 705ft 0kts
11-Feb-19 08:57 35.158610 -114.556007 266 705ft 0kts
11-Feb-19 08:58 35.158610 -114.556007 266 705ft 0kts
11-Feb-19 08:59 35.158610 -114.556007 266 705ft 0kts
11-Feb-19 09:00 35.158610 -114.556007 266 705ft 0kts
11-Feb-19 09:01 35.158610 -114.556007 266 705ft 0kts
11-Feb-19 09:02 35.158610 -114.556007 266 705ft 0kts
11-Feb-19 09:03 35.158610 -114.556007 266 705ft 0kts
11-Feb-19 09:04 35.158610 -114.556007 266 705ft 0kts
11-Feb-19 09:05 35.158610 -114.556007 266 705ft 0kts
11-Feb-19 09:06 35.158610 -114.556007 266 705ft 0kts
11-Feb-19 09:07 35.158610 -114.556007 266 705ft 0kts
11-Feb-19 09:08 35.156424 -114.556390 175 705ft 20kts
11-Feb-19 09:08 35.153821 -114.557880 177 705ft 21kts
11-Feb-19 09:10 35.145939 -114.557306 177 705ft 9kts
11-Feb-19 09:11 35.145497 -114.557570 262 705ft 0kts
11-Feb-19 09:12 35.145497 -114.557570 262 705ft 0kts
11-Feb-19 09:13 35.145539 -114.557739 306 705ft 0kts
11-Feb-19 09:13 35.145544 -114.557748 307 705ft 0kts
11-Feb-19 09:15 35.161860 -114.559969 356 1403ft 104kts
11-Feb-19 09:16 35.181950 -114.546367 100 2898ft 124kts
11-Feb-19 09:16 35.153358 -114.531667 170 3877ft 150kts
11-Feb-19 09:17 35.112004 -114.523609 168 5043ft 154kts
11-Feb-19 09:18 35.069179 -114.514590 175 6078ft 159kts
11-Feb-19 09:19 35.024778 -114.508108 179 7000ft 163kts
11-Feb-19 09:20 34.979080 -114.503141 177 7821ft 167kts
11-Feb-19 09:21 34.956161 -114.530345 282 8559ft 118kts
11-Feb-19 09:22 34.956590 -114.570435 283 9247ft 119kts
11-Feb-19 09:23 34.964731 -114.607227 300 9848ft 111kts
11-Feb-19 09:24 34.975920 -114.642452 299 10460ft 112kts
11-Feb-19 09:25 34.986542 -114.678163 300 11025ft 112kts
11-Feb-19 09:26 34.997646 -114.713653 298 11533ft 113kts
11-Feb-19 09:27 35.008029 -114.749750 299 11989ft 112kts
11-Feb-19 09:28 35.018385 -114.784188 301 12717ft 112kts
11-Feb-19 09:29 35.029455 -114.819892 296 13451ft 113kts
11-Feb-19 09:30 35.039540 -114.856669 297 13986ft 122kts
11-Feb-19 09:31 35.051585 -114.899421 296 14033ft 136kts
11-Feb-19 09:32 35.063032 -114.942923 292 14050ft 142kts
11-Feb-19 09:33 35.077055 -114.988547 298 13974ft 144kts
11-Feb-19 09:34 35.092935 -115.033587 298 13973ft 142kts
11-Feb-19 09:35 35.106958 -115.078941 296 13959ft 144kts
11-Feb-19 09:36 35.118925 -115.125730 292 13984ft 145kts
11-Feb-19 09:37 35.135214 -115.168404 335 13955ft 141kts
11-Feb-19 09:38 35.174819 -115.169294 345 14108ft 138kts
11-Feb-19 09:39 35.214365 -115.174899 343 14028ft 143kts
11-Feb-19 09:40 35.255324 -115.174741 354 13996ft 147kts
11-Feb-19 09:41 35.295908 -115.172981 354 13995ft 145kts
11-Feb-19 09:42 35.336173 -115.171699 353 13986ft 144kts
11-Feb-19 09:43 35.376444 -115.170613 353 13985ft 144kts
11-Feb-19 09:44 35.416483 -115.169612 353 13985ft 144kts
11-Feb-19 09:45 35.456674 -115.168654 353 13981ft 144kts
11-Feb-19 09:46 35.496755 -115.167700 353 13975ft 144kts
11-Feb-19 09:47 35.536848 -115.166738 353 13973ft 141kts
11-Feb-19 09:48 35.576915 -115.165801 354 13447ft 150kts
11-Feb-19 09:49 35.618943 -115.164771 354 12950ft 152kts
11-Feb-19 09:50 35.662076 -115.163735 355 12357ft 157kts
11-Feb-19 09:51 35.705872 -115.160574 353 11770ft 157kts
11-Feb-19 09:52 35.749868 -115.161120 356 11143ft 162kts
11-Feb-19 09:53 35.795968 -115.160308 356 10334ft 169kts
11-Feb-19 09:54 35.843183 -115.160171 356 9564ft 170kts
11-Feb-19 09:55 35.890651 -115.160046 356 8823ft 170kts
11-Feb-19 09:56 35.937991 -115.159459 0 8106ft 171kts
11-Feb-19 09:57 35.981709 -115.154499 2 7127ft 151kts
11-Feb-19 09:58 36.021856 -115.149874 356 6271ft 146kts
11-Feb-19 09:59 36.062037 -115.149542 355 5517ft 140kts
11-Feb-19 10:00 36.100633 -115.154340 350 4987ft 140kts
11-Feb-19 10:01 36.138879 -115.156456 11 4669ft 138kts
11-Feb-19 10:02 36.170031 -115.149621 349 3040ft 108kts
11-Feb-19 10:03 36.192635 -115.174870 320 2696ft 110kts
11-Feb-19 10:04 36.210344 -115.197180 323 2209ft 15kts
11-Feb-19 10:05 36.210525 -115.198144 236 2209ft 0kts
11-Feb-19 10:06 36.210463 -115.198262 239 2209ft 0kts
11-Feb-19 10:07 36.209423 -115.198562 330 2209ft 0kts
11-Feb-19 10:08 36.209424 -115.198562 330 2209ft 0kts
11-Feb-19 10:09 36.209424 -115.198562 330 2209ft 0kts
11-Feb-19 10:10 36.209424 -115.198562 330 2209ft 0kts
11-Feb-19 10:11 36.209424 -115.198562 330 2209ft 0kts
11-Feb-19 10:12 36.209424 -115.198562 330 2209ft 0kts
11-Feb-19 10:13 36.209424 -115.198562 330 2209ft 0kts
11-Feb-19 10:14 36.209424 -115.198562 330 2209ft 0kts
11-Feb-19 10:15 36.209424 -115.198562 330 2209ft 0kts
11-Feb-19 10:16 36.209424 -115.198562 330 2209ft 0kts
11-Feb-19 10:17 36.209424 -115.198562 330 2209ft 0kts
11-Feb-19 10:18 36.209424 -115.198562 330 2209ft 0kts

Navigation Log

Ident Type
Flight plan parsing failed, navigation log unavailable